createdAt,value
2022-12-08T00:00:23.130Z,98614.97
2022-12-08T00:02:50.563Z,98618.66
2022-12-08T00:05:36.620Z,98623.66
2022-12-08T00:08:22.732Z,98620.84
2022-12-08T00:10:50.218Z,98613.03
2022-12-08T00:13:17.650Z,98609.38
2022-12-08T00:15:44.630Z,98611.94
2022-12-08T00:18:11.849Z,98596.63
2022-12-08T00:20:39.197Z,98606.87
2022-12-08T00:23:06.417Z,98610.06
2022-12-08T00:25:36.501Z,98604.59
2022-12-08T00:28:04.015Z,98605.41
2022-12-08T00:30:30.987Z,98604.44
2022-12-08T00:32:58.586Z,98601.03
2022-12-08T00:35:25.867Z,98615.34
2022-12-08T00:37:57.573Z,98610.41
2022-12-08T00:40:28.049Z,98622.47
2022-12-08T00:42:56.146Z,98622.41
2022-12-08T00:45:23.190Z,98616.50
2022-12-08T00:47:50.461Z,98617.41
2022-12-08T00:50:17.460Z,98613.06
2022-12-08T00:52:44.445Z,98612.31
2022-12-08T00:55:11.726Z,98610.66
2022-12-08T00:57:38.712Z,98615.88
2022-12-08T01:00:06.821Z,98611.72
2022-12-08T01:02:34.671Z,98618.03
2022-12-08T01:05:01.716Z,98612.03
2022-12-08T01:07:28.730Z,98614.91
2022-12-08T01:09:57.714Z,98616.66
2022-12-08T01:12:25.180Z,98611.28
2022-12-08T01:14:52.158Z,98619.81
2022-12-08T01:17:19.434Z,98614.75
2022-12-08T01:19:46.431Z,98606.78
2022-12-08T01:22:13.422Z,98612.72
2022-12-08T01:24:40.716Z,98607.47
2022-12-08T01:27:07.707Z,98608.69
2022-12-08T01:29:34.813Z,98614.66
2022-12-08T01:32:02.249Z,98613.41
2022-12-08T01:34:29.260Z,98611.00
2022-12-08T01:36:56.261Z,98605.28
2022-12-08T01:39:23.593Z,98602.88
2022-12-08T01:41:50.649Z,98601.28
2022-12-08T01:44:17.585Z,98603.31
2022-12-08T01:46:47.309Z,98600.91
2022-12-08T01:49:24.076Z,98597.34
2022-12-08T01:52:02.546Z,98594.22
2022-12-08T01:54:32.457Z,98596.13
2022-12-08T01:57:06.371Z,98587.72
2022-12-08T01:59:36.583Z,98591.06
2022-12-08T02:02:04.037Z,98587.59
2022-12-08T02:04:31.343Z,98597.34
2022-12-08T02:07:01.445Z,98585.88
2022-12-08T02:09:32.312Z,98580.44
2022-12-08T02:11:59.895Z,98581.03
2022-12-08T02:14:26.996Z,98578.31
2022-12-08T02:17:28.278Z,98577.84
2022-12-08T02:20:21.703Z,98579.78
2022-12-08T02:23:01.075Z,98583.75
2022-12-08T02:25:54.349Z,98583.00
2022-12-08T02:28:49.096Z,98582.03
2022-12-08T02:31:33.084Z,98581.19
2022-12-08T02:34:29.664Z,98575.75
2022-12-08T02:37:20.947Z,98578.09
2022-12-08T02:39:56.812Z,98578.66
2022-12-08T02:42:44.942Z,98574.88
2022-12-08T02:45:22.300Z,98564.66
2022-12-08T02:47:49.795Z,98568.16
2022-12-08T02:50:17.052Z,98563.97
2022-12-08T02:52:47.950Z,98565.06
2022-12-08T02:55:18.661Z,98574.25
2022-12-08T02:58:04.038Z,98563.44
2022-12-08T03:00:43.842Z,98566.09
2022-12-08T03:03:32.905Z,98568.37
2022-12-08T03:06:22.211Z,98566.41
2022-12-08T03:09:00.013Z,98566.28
2022-12-08T03:11:36.205Z,98565.09
2022-12-08T03:14:05.036Z,98556.25
2022-12-08T03:16:34.181Z,98559.34
2022-12-08T03:19:09.254Z,98556.25
2022-12-08T03:21:37.572Z,98552.94
2022-12-08T03:24:07.584Z,98550.91
2022-12-08T03:26:47.299Z,98552.56
2022-12-08T03:29:14.832Z,98545.47
2022-12-08T03:31:46.690Z,98553.87
2022-12-08T03:34:14.285Z,98554.53
2022-12-08T03:36:41.720Z,98541.59
2022-12-08T03:39:08.797Z,98547.34
2022-12-08T03:41:35.846Z,98547.94
2022-12-08T03:44:03.122Z,98543.66
2022-12-08T03:48:57.352Z,98533.28
2022-12-08T03:51:24.911Z,98537.56
2022-12-08T03:53:51.902Z,98535.84
2022-12-08T03:56:35.069Z,98538.28
2022-12-08T03:59:03.327Z,98533.78
2022-12-08T04:01:30.620Z,98532.72
2022-12-08T04:03:58.244Z,98537.72
2022-12-08T04:06:25.411Z,98533.16
2022-12-08T04:08:52.563Z,98526.34
2022-12-08T04:11:20.068Z,98525.50
2022-12-08T04:13:47.346Z,98531.88
2022-12-08T04:16:20.847Z,98523.16
2022-12-08T04:18:48.325Z,98520.41
2022-12-08T04:21:15.507Z,98518.44
2022-12-08T04:23:42.718Z,98521.59
2022-12-08T04:26:10.088Z,98514.63
2022-12-08T04:28:37.249Z,98519.78
2022-12-08T04:31:04.945Z,98520.09
2022-12-08T04:33:32.247Z,98525.84
2022-12-08T04:35:59.237Z,98521.16
2022-12-08T04:38:26.984Z,98519.94
2022-12-08T04:40:54.559Z,98516.72
2022-12-08T04:43:21.551Z,98522.84
2022-12-08T04:45:48.550Z,98522.78
2022-12-08T04:48:16.097Z,98523.41
2022-12-08T04:50:44.788Z,98515.25
2022-12-08T04:53:12.469Z,98517.06
2022-12-08T04:55:41.930Z,98513.00
2022-12-08T04:58:12.750Z,98514.06
2022-12-08T05:00:41.274Z,98515.44
2022-12-08T05:03:08.527Z,98519.50
2022-12-08T05:05:35.715Z,98519.25
2022-12-08T05:08:03.106Z,98515.75
2022-12-08T05:10:30.147Z,98518.94
2022-12-08T05:12:58.877Z,98518.09
2022-12-08T05:15:26.198Z,98514.31
2022-12-08T05:17:53.344Z,98521.94
2022-12-08T05:20:20.327Z,98523.47
2022-12-08T05:22:47.610Z,98520.56
2022-12-08T05:25:14.989Z,98519.28
2022-12-08T05:27:43.098Z,98505.06
2022-12-08T05:30:10.541Z,98506.28
2022-12-08T05:32:37.597Z,98501.13
2022-12-08T05:35:04.832Z,98498.00
2022-12-08T05:37:32.184Z,98497.84
2022-12-08T05:39:59.273Z,98502.31
2022-12-08T05:42:26.293Z,98503.62
2022-12-08T05:44:53.569Z,98501.81
2022-12-08T05:47:20.542Z,98500.88
2022-12-08T05:49:47.568Z,98506.81
2022-12-08T05:52:16.903Z,98500.97
2022-12-08T05:54:44.316Z,98507.63
2022-12-08T05:57:11.575Z,98513.06
2022-12-08T05:59:39.294Z,98506.97
2022-12-08T06:02:06.411Z,98504.41
2022-12-08T06:04:33.788Z,98509.31
2022-12-08T06:07:00.835Z,98504.16
2022-12-08T06:09:27.832Z,98506.25
2022-12-08T06:11:55.104Z,98502.84
2022-12-08T06:14:22.137Z,98508.50
2022-12-08T06:16:49.199Z,98505.75
2022-12-08T06:19:16.564Z,98512.25
2022-12-08T06:21:43.544Z,98512.81
2022-12-08T06:24:10.543Z,98512.75
2022-12-08T06:26:37.977Z,98511.66
2022-12-08T06:29:05.076Z,98514.06
2022-12-08T06:31:32.111Z,98513.31
2022-12-08T06:33:59.419Z,98513.16
2022-12-08T06:36:27.999Z,98514.84
2022-12-08T06:38:55.356Z,98522.97
2022-12-08T06:41:22.648Z,98514.66
2022-12-08T06:43:49.677Z,98522.41
2022-12-08T06:46:18.826Z,98518.75
2022-12-08T06:48:46.528Z,98520.50
2022-12-08T06:51:19.191Z,98522.91
2022-12-08T06:53:47.121Z,98524.72
2022-12-08T06:56:15.880Z,98516.41
2022-12-08T06:58:46.149Z,98519.91
2022-12-08T07:01:17.918Z,98526.31
2022-12-08T07:03:44.994Z,98525.66
2022-12-08T07:06:16.963Z,98521.25
2022-12-08T07:08:44.287Z,98526.66
2022-12-08T07:11:15.309Z,98532.00
2022-12-08T07:13:45.319Z,98540.63
2022-12-08T07:16:13.121Z,98541.22
2022-12-08T07:18:41.589Z,98533.12
2022-12-08T07:21:13.990Z,98532.06
2022-12-08T07:23:41.196Z,98533.22
2022-12-08T07:26:11.058Z,98536.13
2022-12-08T07:28:39.777Z,98527.78
2022-12-08T07:31:08.083Z,98531.88
2022-12-08T07:33:36.182Z,98532.31
2022-12-08T07:36:07.721Z,98525.53
2022-12-08T07:38:34.693Z,98526.22
2022-12-08T07:41:02.328Z,98515.28
2022-12-08T07:43:29.361Z,98506.44
2022-12-08T07:45:56.424Z,98517.00
2022-12-08T07:48:23.746Z,98523.00
2022-12-08T07:50:50.705Z,98524.22
2022-12-08T07:53:17.740Z,98520.19
2022-12-08T07:55:45.106Z,98525.00
2022-12-08T07:58:12.156Z,98525.53
2022-12-08T08:00:39.191Z,98523.13
2022-12-08T08:03:08.866Z,98526.25
2022-12-08T08:05:35.982Z,98530.53
2022-12-08T08:08:03.158Z,98530.72
2022-12-08T08:10:30.563Z,98529.69
2022-12-08T08:13:00.767Z,98519.28
2022-12-08T08:15:28.200Z,98520.09
2022-12-08T08:17:55.570Z,98513.97
2022-12-08T08:20:22.810Z,98519.06
2022-12-08T08:22:50.872Z,98510.81
2022-12-08T08:25:24.245Z,98517.09
2022-12-08T08:27:51.281Z,98516.47
2022-12-08T08:30:20.912Z,98510.81
2022-12-08T08:32:49.202Z,98511.81
2022-12-08T08:35:16.743Z,98500.25
2022-12-08T08:37:48.586Z,98502.78
2022-12-08T08:40:17.719Z,98507.34
2022-12-08T08:42:45.143Z,98518.69
2022-12-08T08:45:12.196Z,98510.41
2022-12-08T08:47:39.175Z,98506.94
2022-12-08T08:50:07.769Z,98498.56
2022-12-08T08:52:35.098Z,98496.06
2022-12-08T08:55:02.176Z,98497.72
2022-12-08T08:57:29.456Z,98504.16
2022-12-08T08:59:56.449Z,98519.38
2022-12-08T09:02:23.495Z,98521.97
2022-12-08T09:04:50.998Z,98495.88
2022-12-08T09:07:18.014Z,98498.09
2022-12-08T09:09:45.061Z,98500.03
2022-12-08T09:12:12.871Z,98503.94
2022-12-08T09:14:40.231Z,98503.62
2022-12-08T09:17:10.107Z,98514.19
2022-12-08T09:19:37.630Z,98515.56
2022-12-08T09:22:05.241Z,98505.19
2022-12-08T09:24:32.211Z,98509.22
2022-12-08T09:26:59.649Z,98508.16
2022-12-08T09:29:31.053Z,98501.44
2022-12-08T09:32:01.470Z,98493.25
2022-12-08T09:34:28.622Z,98472.69
2022-12-08T09:36:55.640Z,98469.50
2022-12-08T09:39:23.830Z,98469.59
2022-12-08T09:41:56.360Z,98478.84
2022-12-08T09:44:51.701Z,98477.81
2022-12-08T09:47:35.251Z,98479.72
2022-12-08T09:50:22.522Z,98481.88
2022-12-08T09:53:14.226Z,98470.38
2022-12-08T09:55:45.768Z,98449.62
2022-12-08T09:58:21.231Z,98457.31
2022-12-08T10:00:48.550Z,98466.84
2022-12-08T10:03:17.044Z,98465.88
2022-12-08T10:05:59.116Z,98459.38
2022-12-08T10:08:33.386Z,98467.88
2022-12-08T10:11:05.104Z,98456.06
2022-12-08T10:13:57.551Z,98461.84
2022-12-08T10:16:32.474Z,98456.09
2022-12-08T10:19:10.692Z,98455.78
2022-12-08T10:21:39.433Z,98451.91
2022-12-08T10:24:13.692Z,98447.47
2022-12-08T10:26:40.733Z,98448.59
2022-12-08T10:29:14.764Z,98440.31
2022-12-08T10:31:42.066Z,98435.06
2022-12-08T10:34:18.809Z,98427.38
2022-12-08T10:36:50.259Z,98426.00
2022-12-08T10:39:29.670Z,98421.47
2022-12-08T10:42:02.868Z,98408.69
2022-12-08T10:44:30.316Z,98405.91
2022-12-08T10:46:57.469Z,98398.66
2022-12-08T10:49:32.372Z,98401.13
2022-12-08T10:51:59.734Z,98399.87
2022-12-08T10:54:34.505Z,98395.84
2022-12-08T10:57:01.821Z,98386.00
2022-12-08T10:59:29.281Z,98377.50
2022-12-08T11:01:56.929Z,98371.69
2022-12-08T11:04:30.844Z,98364.97
2022-12-08T11:06:57.853Z,98366.53
2022-12-08T11:09:49.113Z,98364.78
2022-12-08T11:12:18.110Z,98344.38
2022-12-08T11:14:45.878Z,98334.69
2022-12-08T11:17:16.152Z,98328.59
2022-12-08T11:19:56.348Z,98333.97
2022-12-08T11:22:38.036Z,98317.94
2022-12-08T11:25:07.790Z,98314.47
2022-12-08T11:27:36.794Z,98311.81
2022-12-08T11:30:27.512Z,98308.31
2022-12-08T11:32:56.685Z,98306.81
2022-12-08T11:35:30.175Z,98306.19
2022-12-08T11:38:20.499Z,98300.94
2022-12-08T11:40:50.744Z,98297.31
2022-12-08T11:43:22.815Z,98294.09
2022-12-08T11:46:04.732Z,98293.03
2022-12-08T11:48:46.414Z,98285.87
2022-12-08T11:51:29.719Z,98286.91
2022-12-08T11:54:09.075Z,98289.00
2022-12-08T11:56:41.789Z,98289.47
2022-12-08T11:59:29.951Z,98284.78
2022-12-08T12:02:01.446Z,98276.16
2022-12-08T12:04:50.173Z,98272.53
2022-12-08T12:07:36.165Z,98272.16
2022-12-08T12:10:12.423Z,98276.94
2022-12-08T12:12:49.871Z,98280.31
2022-12-08T12:15:32.334Z,98285.13
2022-12-08T12:17:59.263Z,98289.66
2022-12-08T12:20:46.998Z,98292.69
2022-12-08T12:23:24.712Z,98286.53
2022-12-08T12:26:00.523Z,98289.66
2022-12-08T12:28:33.279Z,98289.03
2022-12-08T12:31:07.491Z,98293.19
2022-12-08T12:33:35.720Z,98283.75
2022-12-08T12:36:05.681Z,98276.81
2022-12-08T12:38:57.916Z,98273.31
2022-12-08T12:41:32.427Z,98271.22
2022-12-08T12:44:14.483Z,98268.66
2022-12-08T12:46:51.112Z,98270.19
2022-12-08T12:49:40.211Z,98256.31
2022-12-08T12:52:10.551Z,98258.41
2022-12-08T12:54:43.174Z,98258.59
2022-12-08T12:57:10.463Z,98251.66
2022-12-08T12:59:46.165Z,98252.59
2022-12-08T13:02:21.899Z,98249.69
2022-12-08T13:04:54.697Z,98244.91
2022-12-08T13:07:25.341Z,98232.72
2022-12-08T13:10:11.713Z,98235.81
2022-12-08T13:12:39.116Z,98233.81
2022-12-08T13:15:07.250Z,98231.13
2022-12-08T13:17:36.368Z,98228.16
2022-12-08T13:20:06.578Z,98233.63
2022-12-08T13:23:01.925Z,98224.94
2022-12-08T13:25:44.554Z,98217.06
2022-12-08T13:28:21.577Z,98225.78
2022-12-08T13:30:50.522Z,98229.81
2022-12-08T13:33:40.812Z,98230.66
2022-12-08T13:36:33.031Z,98242.66
2022-12-08T13:39:00.107Z,98238.59
2022-12-08T13:41:39.267Z,98232.91
2022-12-08T13:47:32.421Z,98236.62
2022-12-08T13:59:29.924Z,98239.94
2022-12-08T14:02:17.560Z,98233.44
2022-12-08T14:05:16.774Z,98242.88
2022-12-08T14:07:34.581Z,98244.91
2022-12-08T14:10:03.626Z,98248.03
2022-12-08T14:12:31.379Z,98251.66
2022-12-08T14:15:03.663Z,98251.84
2022-12-08T14:17:32.472Z,98249.06
2022-12-08T14:20:06.757Z,98244.09
2022-12-08T14:22:39.418Z,98246.78
2022-12-08T14:25:11.482Z,98245.12
2022-12-08T14:27:38.888Z,98245.25
2022-12-08T14:30:08.755Z,98243.28
2022-12-08T14:32:39.556Z,98237.69
2022-12-08T14:35:06.950Z,98248.03
2022-12-08T14:37:36.936Z,98243.28
2022-12-08T14:40:24.063Z,98249.34
2022-12-08T14:42:54.073Z,98249.25
2022-12-08T14:45:21.303Z,98241.31
2022-12-08T14:47:48.713Z,98237.28
2022-12-08T14:50:41.987Z,98241.78
2022-12-08T14:53:17.374Z,98235.72
2022-12-08T14:55:47.671Z,98230.22
2022-12-08T14:58:30.468Z,98224.22
2022-12-08T15:00:58.812Z,98222.78
2022-12-08T15:03:30.510Z,98214.81
2022-12-08T15:06:00.355Z,98226.59
2022-12-08T15:08:27.618Z,98226.69
2022-12-08T15:11:22.819Z,98226.06
2022-12-08T15:13:51.845Z,98217.47
2022-12-08T15:16:43.101Z,98219.22
2022-12-08T15:19:23.271Z,98211.16
2022-12-08T15:21:51.018Z,98208.41
2022-12-08T15:24:26.017Z,98209.69
2022-12-08T15:26:53.775Z,98218.28
2022-12-08T15:29:25.976Z,98216.31
2022-12-08T15:31:55.563Z,98215.50
2022-12-08T15:34:23.198Z,98198.94
2022-12-08T15:36:51.523Z,98204.50
2022-12-08T15:39:25.126Z,98200.16
2022-12-08T15:41:52.750Z,98212.69
2022-12-08T15:44:19.721Z,98211.84
2022-12-08T15:46:46.857Z,98210.50
2022-12-08T15:49:18.959Z,98211.44
2022-12-08T15:51:45.981Z,98216.19
2022-12-08T15:54:13.215Z,98208.09
2022-12-08T15:57:10.905Z,98211.75
2022-12-08T15:59:33.273Z,98216.63
2022-12-08T16:02:00.627Z,98213.19
2022-12-08T16:05:17.845Z,98211.75
2022-12-08T16:07:38.040Z,98206.50
2022-12-08T16:10:07.090Z,98205.16
2022-12-08T16:16:00.661Z,98201.16
2022-12-08T16:18:33.265Z,98197.88
2022-12-08T16:21:41.704Z,98193.84
2022-12-08T16:23:48.288Z,98179.66
2022-12-08T16:26:39.338Z,98174.50
2022-12-08T16:29:05.844Z,98177.81
2022-12-08T16:31:33.448Z,98186.00
2022-12-08T16:34:01.594Z,98205.13
2022-12-08T16:36:28.574Z,98199.94
2022-12-08T16:38:55.852Z,98201.94
2022-12-08T16:41:44.374Z,98198.88
2022-12-08T16:44:11.623Z,98201.97
2022-12-08T16:46:39.177Z,98201.66
2022-12-08T16:49:08.497Z,98198.97
2022-12-08T16:51:35.776Z,98202.16
2022-12-08T16:54:02.828Z,98206.56
2022-12-08T16:56:33.209Z,98207.31
2022-12-08T16:59:01.954Z,98205.25
2022-12-08T17:01:29.329Z,98213.72
2022-12-08T17:04:22.962Z,98212.97
2022-12-08T17:06:43.791Z,98207.03
2022-12-08T17:09:10.787Z,98218.13
2022-12-08T17:11:42.943Z,98205.00
2022-12-08T17:14:14.082Z,98206.78
2022-12-08T17:16:41.707Z,98201.63
2022-12-08T17:19:09.364Z,98191.69
2022-12-08T17:21:36.661Z,98192.28
2022-12-08T17:24:04.591Z,98190.53
2022-12-08T17:26:31.720Z,98198.19
2022-12-08T17:29:01.835Z,98204.50
2022-12-08T17:31:31.447Z,98204.31
2022-12-08T17:34:03.886Z,98192.28
2022-12-08T17:36:31.353Z,98187.34
2022-12-08T17:39:00.336Z,98182.50
2022-12-08T17:41:28.071Z,98171.31
2022-12-08T17:43:55.216Z,98174.91
2022-12-08T17:46:23.449Z,98175.34
2022-12-08T17:48:50.474Z,98171.09
2022-12-08T17:51:17.751Z,98170.19
2022-12-08T17:53:45.554Z,98173.88
2022-12-08T17:56:20.995Z,98173.88
2022-12-08T17:58:53.998Z,98172.88
2022-12-08T18:01:22.946Z,98178.66
2022-12-08T18:03:50.806Z,98185.69
2022-12-08T18:06:17.856Z,98195.63
2022-12-08T18:08:45.106Z,98198.31
2022-12-08T18:11:15.062Z,98205.34
2022-12-08T18:13:42.219Z,98203.09
2022-12-08T18:16:09.257Z,98211.88
2022-12-08T18:18:37.678Z,98215.09
2022-12-08T18:21:04.835Z,98210.75
2022-12-08T18:23:31.958Z,98212.31
2022-12-08T18:25:59.445Z,98213.44
2022-12-08T18:28:26.508Z,98213.03
2022-12-08T18:30:53.552Z,98212.63
2022-12-08T18:33:22.811Z,98205.97
2022-12-08T18:35:50.103Z,98208.34
2022-12-08T18:38:17.104Z,98197.41
2022-12-08T18:40:47.556Z,98202.25
2022-12-08T18:43:14.554Z,98200.91
2022-12-08T18:45:41.628Z,98200.59
2022-12-08T18:48:08.944Z,98203.81
2022-12-08T18:50:35.949Z,98199.06
2022-12-08T18:53:02.972Z,98203.19
2022-12-08T18:55:30.265Z,98205.16
2022-12-08T18:57:57.294Z,98207.03
2022-12-08T19:00:25.475Z,98207.66
2022-12-08T19:02:52.814Z,98203.94
2022-12-08T19:05:19.906Z,98200.09
2022-12-08T19:07:47.004Z,98202.69
2022-12-08T19:10:14.485Z,98207.44
2022-12-08T19:12:41.560Z,98193.56
2022-12-08T19:15:09.252Z,98201.13
2022-12-08T19:17:36.773Z,98199.44
2022-12-08T19:20:05.184Z,98203.59
2022-12-08T19:22:32.543Z,98199.88
2022-12-08T19:24:59.940Z,98195.59
2022-12-08T19:27:28.022Z,98198.19
2022-12-08T19:29:55.883Z,98201.81
2022-12-08T19:32:23.158Z,98206.31
2022-12-08T19:34:50.267Z,98204.41
2022-12-08T19:37:17.258Z,98203.66
2022-12-08T19:40:03.178Z,98204.41
2022-12-08T19:42:49.008Z,98205.94
2022-12-08T19:45:21.480Z,98198.78
2022-12-08T19:47:48.937Z,98202.75
2022-12-08T19:50:35.576Z,98201.56
2022-12-08T19:53:11.211Z,98209.13
2022-12-08T19:55:38.947Z,98206.03
2022-12-08T19:58:06.899Z,98189.59
2022-12-08T20:00:35.238Z,98187.06
2022-12-08T20:03:03.400Z,98186.53
2022-12-08T20:05:31.348Z,98185.19
2022-12-08T20:07:58.367Z,98180.88
2022-12-08T20:10:29.263Z,98178.13
2022-12-08T20:13:16.754Z,98172.44
2022-12-08T20:15:44.625Z,98174.34
2022-12-08T20:18:12.797Z,98173.84
2022-12-08T20:20:41.222Z,98187.47
2022-12-08T20:23:08.767Z,98181.69
2022-12-08T20:25:41.307Z,98186.03
2022-12-08T20:28:08.853Z,98188.47
2022-12-08T20:30:38.740Z,98191.12
2022-12-08T20:33:05.777Z,98181.06
2022-12-08T20:35:33.686Z,98188.22
2022-12-08T20:38:00.752Z,98186.16
2022-12-08T20:40:27.764Z,98179.81
2022-12-08T20:42:56.309Z,98175.31
2022-12-08T20:45:23.281Z,98183.47
2022-12-08T20:47:50.406Z,98188.13
2022-12-08T20:50:17.818Z,98200.59
2022-12-08T20:52:44.893Z,98191.16
2022-12-08T20:55:11.935Z,98198.38
2022-12-08T20:57:39.230Z,98204.38
2022-12-08T21:00:08.596Z,98201.69
2022-12-08T21:02:36.033Z,98208.94
2022-12-08T21:05:04.853Z,98211.22
2022-12-08T21:07:33.708Z,98209.75
2022-12-08T21:10:01.138Z,98200.41
2022-12-08T21:12:28.666Z,98213.28
2022-12-08T21:14:55.746Z,98201.78
2022-12-08T21:17:22.921Z,98198.00
2022-12-08T21:19:50.461Z,98193.66
2022-12-08T21:22:17.583Z,98180.91
2022-12-08T21:24:44.684Z,98177.31
2022-12-08T21:27:11.971Z,98182.50
2022-12-08T21:29:39.031Z,98188.19
2022-12-08T21:32:06.289Z,98184.44
2022-12-08T21:34:34.220Z,98191.84
2022-12-08T21:37:02.135Z,98192.56
2022-12-08T21:39:29.267Z,98195.75
2022-12-08T21:42:14.950Z,98188.16
2022-12-08T21:44:42.101Z,98177.75
2022-12-08T21:47:09.436Z,98184.38
2022-12-08T21:49:36.544Z,98180.88
2022-12-08T21:52:03.709Z,98185.28
2022-12-08T21:54:31.288Z,98185.19
2022-12-08T21:56:58.362Z,98188.16
2022-12-08T21:59:25.389Z,98186.53
2022-12-08T22:01:52.777Z,98186.16
2022-12-08T22:04:21.842Z,98192.44
2022-12-08T22:06:49.148Z,98192.03
2022-12-08T22:09:16.415Z,98183.06
2022-12-08T22:11:44.483Z,98194.50
2022-12-08T22:14:14.928Z,98182.97
2022-12-08T22:16:43.290Z,98184.38
2022-12-08T22:19:11.392Z,98184.59
2022-12-08T22:21:38.553Z,98178.41
2022-12-08T22:24:06.216Z,98194.13
2022-12-08T22:26:34.003Z,98195.78
2022-12-08T22:29:01.438Z,98187.09
2022-12-08T22:31:28.502Z,98194.41
2022-12-08T22:33:56.060Z,98194.59
2022-12-08T22:36:25.043Z,98186.25
2022-12-08T22:38:53.409Z,98187.59
2022-12-08T22:41:22.165Z,98190.25
2022-12-08T22:43:50.205Z,98192.22
2022-12-08T22:46:23.302Z,98192.44
2022-12-08T22:48:51.508Z,98188.63
2022-12-08T22:51:19.297Z,98178.81
2022-12-08T22:53:47.130Z,98185.44
2022-12-08T22:56:15.368Z,98185.84
2022-12-08T22:58:43.053Z,98186.25
2022-12-08T23:01:25.441Z,98180.69
2022-12-08T23:03:53.277Z,98183.16
2022-12-08T23:06:20.681Z,98186.03
2022-12-08T23:08:48.279Z,98187.47
2022-12-08T23:11:15.661Z,98185.09
2022-12-08T23:13:42.672Z,98189.97
2022-12-08T23:16:10.973Z,98179.22
2022-12-08T23:18:44.446Z,98190.88
2022-12-08T23:21:15.826Z,98194.13
2022-12-08T23:23:43.142Z,98189.22
2022-12-08T23:26:25.167Z,98185.84
2022-12-08T23:28:52.780Z,98189.34
2022-12-08T23:31:20.257Z,98188.34
2022-12-08T23:33:47.859Z,98180.00
2022-12-08T23:36:16.563Z,98188.19
2022-12-08T23:38:43.812Z,98190.38
2022-12-08T23:41:12.345Z,98173.72
2022-12-08T23:43:44.446Z,98174.84
2022-12-08T23:46:11.789Z,98172.66
2022-12-08T23:48:38.888Z,98174.19
2022-12-08T23:51:06.446Z,98160.16
2022-12-08T23:53:33.695Z,98160.25
2022-12-08T23:56:02.348Z,98161.16
2022-12-08T23:58:30.876Z,98157.75
